»·PEaware :: N2013F KLAS-KMRY

N2013F :: KLAS-KMRY

FLIGHT INFORMATION

Flight Status: Arrived
Operator: Privately registered:
United States
More flights under this callsign
Pilot: Spencer F. (32151)
Aircraft: SOCATA TBM-900
(TBM9)
More flights by this aircraft type
Origin: KLAS McCarran Intl
United States
Destination: KMRY Monterey Peninsula
United States
More flights between these airports :: More routes between these airports
Route: KLAS DCT KMRY
File this flight plan on PilotEdge
Remarks:
Altitude:
(Current/Filed)
16,500ft
Speed:
(Current/Filed)
0kts
Departed: 04-Nov-20 01:38 PM
Arrived: 04-Nov-20 03:01 PM
Distance/Time
Traveled:
325nm/1:22
Distance/Time
To Go:
Arrived

Flight Plot

Page will automatically refresh every two minutes.

Flight plan parsing failed; only flown route is shown


Map Options




Map Legend


Flown Route
Filed Route
Departure Airport
Arrival Airport
Navaid (VOR, NDB)
Fix

Horizontal Profiles

Position Reports

Time Latitude Longitude Heading Altitude Ground
Speed
04-Nov-20 13:26 36.097019 -115.160934 120 2103ft 0kts
04-Nov-20 13:28 36.097019 -115.160934 120 2103ft 0kts
04-Nov-20 13:28 36.097019 -115.160934 120 2103ft 0kts
04-Nov-20 13:30 36.097019 -115.160934 120 2103ft 0kts
04-Nov-20 13:30 36.097019 -115.160934 120 2103ft 0kts
04-Nov-20 13:31 36.097019 -115.160934 120 2103ft 0kts
04-Nov-20 13:32 36.099263 -115.159076 28 2096ft 0kts
04-Nov-20 13:33 36.099413 -115.158958 42 2095ft 16kts
04-Nov-20 13:34 36.099852 -115.157465 99 2092ft 0kts
04-Nov-20 13:35 36.099852 -115.157465 99 2092ft 0kts
04-Nov-20 13:36 36.099851 -115.157459 99 2092ft 1kts
04-Nov-20 13:37 36.094624 -115.159389 203 2112ft 98kts
04-Nov-20 13:38 36.059541 -115.184151 241 3645ft 140kts
04-Nov-20 13:39 36.080052 -115.238935 303 3948ft 194kts
04-Nov-20 13:40 36.104495 -115.298020 287 6095ft 198kts
04-Nov-20 13:41 36.119445 -115.365228 286 8107ft 211kts
04-Nov-20 13:42 36.135241 -115.437179 287 10094ft 222kts
04-Nov-20 13:43 36.153146 -115.514780 287 11614ft 246kts
04-Nov-20 13:44 36.172879 -115.597258 287 13155ft 253kts
04-Nov-20 13:45 36.193697 -115.681498 287 14523ft 260kts
04-Nov-20 13:46 36.215563 -115.768043 287 15839ft 265kts
04-Nov-20 13:47 36.239111 -115.858875 287 16362ft 286kts
04-Nov-20 13:48 36.264147 -115.954753 287 16506ft 297kts
04-Nov-20 13:49 36.289711 -116.052634 287 16518ft 300kts
04-Nov-20 13:50 36.315572 -116.151566 287 16524ft 301kts
04-Nov-20 13:51 36.341364 -116.250108 287 16525ft 300kts
04-Nov-20 13:52 36.367260 -116.348754 287 16528ft 301kts
04-Nov-20 13:53 36.393354 -116.447721 287 16533ft 301kts
04-Nov-20 13:54 36.438818 -116.532515 319 16543ft 301kts
04-Nov-20 13:55 36.503959 -116.597607 322 16561ft 301kts
04-Nov-20 13:56 36.569418 -116.662412 321 16570ft 301kts
04-Nov-20 13:57 36.634824 -116.727850 321 16580ft 301kts
04-Nov-20 13:58 36.699979 -116.793325 321 16589ft 301kts
04-Nov-20 13:59 36.766395 -116.856812 328 16595ft 301kts
04-Nov-20 14:00 36.838386 -116.910406 330 16602ft 300kts
04-Nov-20 14:01 36.910217 -116.963858 329 16610ft 300kts
04-Nov-20 14:02 36.981830 -117.018064 329 16617ft 300kts
04-Nov-20 14:03 37.053171 -117.072401 329 16551ft 301kts
04-Nov-20 14:04 37.124778 -117.127203 329 16546ft 300kts
04-Nov-20 14:05 37.194978 -117.182890 313 16546ft 300kts
04-Nov-20 14:06 37.210789 -117.283900 270 16582ft 300kts
04-Nov-20 14:07 37.210747 -117.388681 269 16580ft 300kts
04-Nov-20 14:08 37.211117 -117.491895 269 16587ft 299kts
04-Nov-20 14:09 37.212167 -117.596361 270 16592ft 299kts
04-Nov-20 14:10 37.213643 -117.700754 270 16597ft 299kts
04-Nov-20 14:11 37.215357 -117.804989 270 16597ft 299kts
04-Nov-20 14:12 37.217199 -117.909252 270 16599ft 299kts
04-Nov-20 14:13 37.218976 -118.013488 270 16589ft 298kts
04-Nov-20 14:14 37.220435 -118.117635 270 16560ft 297kts
04-Nov-20 14:15 37.221656 -118.220772 270 16558ft 296kts
04-Nov-20 14:16 37.222548 -118.323928 270 16559ft 295kts
04-Nov-20 14:17 37.223309 -118.427028 270 16572ft 295kts
04-Nov-20 14:18 37.224102 -118.530208 270 16551ft 295kts
04-Nov-20 14:19 37.224909 -118.632843 270 16544ft 294kts
04-Nov-20 14:20 37.225675 -118.735586 270 16536ft 294kts
04-Nov-20 14:21 37.221666 -118.838001 257 16509ft 294kts
04-Nov-20 14:22 37.201931 -118.937483 255 16506ft 295kts
04-Nov-20 14:23 37.181907 -119.037372 256 16483ft 294kts
04-Nov-20 14:24 37.162699 -119.137020 256 16473ft 294kts
04-Nov-20 14:25 37.143824 -119.236919 256 16458ft 294kts
04-Nov-20 14:26 37.125032 -119.337118 256 16449ft 295kts
04-Nov-20 14:27 37.106305 -119.437520 256 16439ft 297kts
04-Nov-20 14:28 37.087646 -119.538175 256 16520ft 297kts
04-Nov-20 14:29 37.068973 -119.639728 256 16519ft 300kts
04-Nov-20 14:30 37.050202 -119.741823 256 16504ft 301kts
04-Nov-20 14:31 37.031333 -119.844382 256 16490ft 302kts
04-Nov-20 14:32 37.012435 -119.947341 256 16477ft 304kts
04-Nov-20 14:33 36.993612 -120.050698 256 16465ft 306kts
04-Nov-20 14:34 36.974751 -120.154468 256 16463ft 306kts
04-Nov-20 14:35 36.955879 -120.258637 256 16462ft 306kts
04-Nov-20 14:36 36.937249 -120.362291 256 16461ft 306kts
04-Nov-20 14:37 36.918623 -120.466308 256 16458ft 306kts
04-Nov-20 14:38 36.900085 -120.569995 257 16445ft 305kts
04-Nov-20 14:39 36.881707 -120.673201 257 16445ft 304kts
04-Nov-20 14:40 36.862642 -120.776125 254 16444ft 303kts
04-Nov-20 14:41 36.827512 -120.871477 241 16447ft 302kts
04-Nov-20 14:42 36.788509 -120.961278 241 15658ft 280kts
04-Nov-20 14:43 36.752968 -121.045168 241 14652ft 269kts
04-Nov-20 14:44 36.718619 -121.127605 241 13644ft 265kts
04-Nov-20 14:45 36.685269 -121.208769 241 12614ft 260kts
04-Nov-20 14:46 36.655691 -121.282099 241 11559ft 212kts
04-Nov-20 14:47 36.630341 -121.345922 242 9943ft 203kts
04-Nov-20 14:48 36.605210 -121.408187 242 7927ft 198kts
04-Nov-20 14:49 36.580166 -121.468490 242 5920ft 194kts
04-Nov-20 14:50 36.555581 -121.527412 255 4165ft 181kts
04-Nov-20 14:51 36.563265 -121.592690 277 3973ft 197kts
04-Nov-20 14:52 36.565424 -121.661078 259 3953ft 199kts
04-Nov-20 14:53 36.550916 -121.729139 255 3462ft 212kts
04-Nov-20 14:54 36.562282 -121.798740 295 2614ft 208kts
04-Nov-20 14:55 36.582751 -121.831050 311 367ft 85kts
04-Nov-20 14:56 36.595349 -121.864901 304 844ft 139kts
04-Nov-20 14:57 36.614623 -121.859693 123 1457ft 110kts
04-Nov-20 14:58 36.595592 -121.827981 122 1197ft 108kts
04-Nov-20 14:59 36.583607 -121.829682 292 412ft 137kts
04-Nov-20 15:00 36.588088 -121.841879 27 216ft 0kts
04-Nov-20 15:01 36.588105 -121.839913 123 225ft 0kts

Navigation Log

Ident Type
Flight plan parsing failed, navigation log unavailable